Time;durP1;ratioP1;P1;durP2;ratioP2;P2;SDS_P1;SDS_P2;PMS_P1;PMS_P2;Temp;Humidity;BMP_temperature;BMP_pressure;BME280_temperature;BME280_humidity;BME280_pressure;Samples;Min_cycle;Max_cycle;Signal;HPM_P1;HPM_P2
2022/11/15 00:00:51;;;;;;;47.08;23.60;;;7.30;99.90;;;;;;5104764;28;20042;-77
2022/11/15 00:03:18;;;;;;;46.65;23.63;;;7.30;99.90;;;;;;5105791;28;20036;-77
2022/11/15 00:05:44;;;;;;;51.80;25.23;;;7.20;99.90;;;;;;5105947;28;20024;-75
2022/11/15 00:08:10;;;;;;;50.38;23.65;;;7.30;99.90;;;;;;5091246;28;20056;-76
2022/11/15 00:10:37;;;;;;;47.95;22.95;;;7.30;99.90;;;;;;5093801;28;20075;-76
2022/11/15 00:13:11;;;;;;;51.40;24.13;;;7.20;99.90;;;;;;5092414;28;20055;-77
2022/11/15 00:15:38;;;;;;;44.75;23.98;;;7.30;99.90;;;;;;5085753;28;20037;-77
2022/11/15 00:18:05;;;;;;;60.15;25.17;;;7.30;99.90;;;;;;5105764;28;20024;-77
2022/11/15 00:20:33;;;;;;;45.97;23.08;;;7.30;99.90;;;;;;5103821;28;20048;-78
2022/11/15 00:22:58;;;;;;;54.75;25.40;;;7.30;99.90;;;;;;5104668;28;20036;-77
2022/11/15 00:25:24;;;;;;;47.80;23.13;;;7.20;99.90;;;;;;5104398;28;20025;-76
2022/11/15 00:27:51;;;;;;;52.58;24.98;;;7.20;99.90;;;;;;5104574;28;20027;-77
2022/11/15 00:30:17;;;;;;;46.15;22.30;;;7.20;99.90;;;;;;5105769;28;20028;-77
2022/11/15 00:32:42;;;;;;;48.08;22.65;;;7.20;99.90;;;;;;5099880;28;20092;-75
2022/11/15 00:35:08;;;;;;;47.15;22.67;;;7.10;99.90;;;;;;5084008;28;20040;-77
2022/11/15 00:37:34;;;;;;;51.42;21.85;;;7.10;99.90;;;;;;5085319;28;20027;-77
2022/11/15 00:39:59;;;;;;;46.20;22.83;;;7.10;99.90;;;;;;5083772;28;20029;-77
2022/11/15 00:42:25;;;;;;;44.38;21.70;;;7.10;99.90;;;;;;5083839;28;20062;-78
2022/11/15 00:44:51;;;;;;;42.72;22.35;;;7.10;99.90;;;;;;5085212;28;20036;-76
2022/11/15 00:47:16;;;;;;;44.28;21.25;;;7.20;99.90;;;;;;5083573;28;20034;-77
2022/11/15 00:49:42;;;;;;;45.05;21.38;;;7.10;99.90;;;;;;5085035;28;20047;-75
2022/11/15 00:52:07;;;;;;;48.90;20.88;;;7.10;99.90;;;;;;5084680;28;20020;-75
2022/11/15 00:54:33;;;;;;;45.28;20.30;;;7.10;99.90;;;;;;5084742;28;20040;-77
2022/11/15 00:56:58;;;;;;;40.72;21.25;;;7.10;99.90;;;;;;5084960;28;20025;-78
2022/11/15 00:59:24;;;;;;;43.80;21.55;;;7.00;99.90;;;;;;5084826;28;20024;-78
2022/11/15 01:01:50;;;;;;;46.05;21.23;;;7.20;99.90;;;;;;5082984;28;20025;-77
2022/11/15 01:04:15;;;;;;;39.40;19.80;;;7.00;99.90;;;;;;5084689;28;20048;-78
2022/11/15 01:06:41;;;;;;;39.20;19.98;;;7.00;99.90;;;;;;5083377;28;20389;-78
2022/11/15 01:09:06;;;;;;;42.55;20.58;;;7.00;99.90;;;;;;5084408;28;20076;-77
2022/11/15 01:11:32;;;;;;;39.80;19.02;;;7.00;99.90;;;;;;5084346;28;20088;-78
2022/11/15 01:13:57;;;;;;;43.95;21.25;;;7.00;99.90;;;;;;5084647;28;20096;-78
2022/11/15 01:16:23;;;;;;;43.65;21.48;;;7.00;99.90;;;;;;5083518;28;20119;-75
2022/11/15 01:18:50;;;;;;;40.40;20.48;;;6.90;99.90;;;;;;5084764;28;20427;-76
2022/11/15 01:21:18;;;;;;;41.80;20.83;;;6.90;99.90;;;;;;5082951;28;20071;-76
2022/11/15 01:23:44;;;;;;;44.53;20.95;;;6.80;99.90;;;;;;5102604;28;20100;-77
2022/11/15 01:26:12;;;;;;;41.88;20.83;;;7.00;99.90;;;;;;5104841;28;20023;-75
2022/11/15 01:28:39;;;;;;;43.65;20.30;;;7.00;99.90;;;;;;5086104;28;20021;-76
2022/11/15 01:31:12;;;;;;;42.85;21.05;;;6.90;99.90;;;;;;5084664;28;20039;-76
2022/11/15 01:33:38;;;;;;;44.58;19.98;;;6.90;99.90;;;;;;5100579;28;20073;-77
2022/11/15 01:36:05;;;;;;;45.92;20.67;;;6.90;99.90;;;;;;5085176;28;20020;-78
2022/11/15 01:38:31;;;;;;;38.92;20.48;;;6.80;99.90;;;;;;5084406;28;20021;-77
2022/11/15 01:40:56;;;;;;;39.72;20.35;;;6.80;99.90;;;;;;5084477;28;20384;-78
2022/11/15 01:43:28;;;;;;;49.40;20.60;;;6.80;99.90;;;;;;5086493;28;20033;-77
2022/11/15 01:46:00;;;;;;;42.92;19.25;;;6.80;99.90;;;;;;5084799;28;20024;-76
2022/11/15 01:48:31;;;;;;;44.05;19.58;;;6.80;99.90;;;;;;5084113;28;20054;-77
2022/11/15 01:50:59;;;;;;;42.30;21.13;;;6.80;99.90;;;;;;5097620;28;20027;-77
2022/11/15 01:53:26;;;;;;;41.67;20.17;;;6.70;99.90;;;;;;5096056;28;20016;-78
2022/11/15 01:55:53;;;;;;;49.65;22.15;;;6.70;99.90;;;;;;5097061;28;20034;-77
2022/11/15 01:58:19;;;;;;;47.70;20.77;;;6.70;99.90;;;;;;5089026;28;20391;-76
2022/11/15 02:00:44;;;;;;;54.38;20.25;;;6.70;99.90;;;;;;5084212;28;20052;-77
2022/11/15 02:03:10;;;;;;;46.05;20.98;;;6.60;99.90;;;;;;5092955;28;20503;-76
2022/11/15 02:05:37;;;;;;;40.97;19.75;;;6.70;99.90;;;;;;5088675;28;20060;-77
2022/11/15 02:08:03;;;;;;;41.25;20.80;;;6.70;99.90;;;;;;5090153;28;20047;-77
2022/11/15 02:10:28;;;;;;;40.60;18.35;;;6.70;99.90;;;;;;5099716;28;20032;-77
2022/11/15 02:12:56;;;;;;;39.00;19.15;;;6.70;99.90;;;;;;5088605;28;20021;-77
2022/11/15 02:15:24;;;;;;;38.80;19.35;;;6.60;99.90;;;;;;5100873;28;20032;-77
2022/11/15 02:17:49;;;;;;;39.58;20.83;;;6.70;99.90;;;;;;5106856;28;20054;-77
2022/11/15 02:20:47;;;;;;;42.13;21.02;;;6.60;99.90;;;;;;5094250;28;20079;-76
2022/11/15 02:23:24;;;;;;;36.15;17.75;;;6.60;99.90;;;;;;5096879;28;20032;-77
2022/11/15 02:26:14;;;;;;;51.78;20.30;;;6.60;99.90;;;;;;5108490;28;20035;-77
2022/11/15 02:29:25;;;;;;;38.13;19.20;;;6.60;99.90;;;;;;5106956;28;20074;-75
2022/11/15 02:32:03;;;;;;;36.53;18.75;;;6.60;99.90;;;;;;5076507;28;20044;-76
2022/11/15 02:34:29;;;;;;;38.97;19.95;;;6.60;99.90;;;;;;5096817;28;20456;-77
2022/11/15 02:37:15;;;;;;;39.35;18.92;;;6.60;99.90;;;;;;5091844;28;20111;-76
2022/11/15 02:39:50;;;;;;;39.47;19.92;;;6.60;99.90;;;;;;5105119;28;20031;-75
2022/11/15 02:45:36;;;;;;;39.08;19.60;;;6.80;99.90;;;;;;5105049;28;20039;-76
2022/11/15 02:48:03;;;;;;;42.22;19.40;;;6.80;99.90;;;;;;5088028;28;20032;-76
2022/11/15 02:50:31;;;;;;;36.22;18.85;;;6.80;99.90;;;;;;5101312;28;20055;-77
2022/11/15 02:52:57;;;;;;;39.28;19.48;;;6.80;99.90;;;;;;5095071;28;20016;-76
2022/11/15 02:55:32;;;;;;;36.58;18.95;;;6.90;99.90;;;;;;5095151;28;20039;-75
2022/11/15 02:58:23;;;;;;;39.35;19.23;;;6.90;99.90;;;;;;5106397;28;20028;-76
2022/11/15 03:01:19;;;;;;;38.80;18.23;;;6.90;99.90;;;;;;5100551;28;20063;-75
2022/11/15 03:04:21;;;;;;;42.45;20.05;;;6.90;99.90;;;;;;5087085;28;20028;-74
2022/11/15 03:07:00;;;;;;;42.08;20.63;;;7.00;99.90;;;;;;5094811;28;20036;-77
2022/11/15 03:10:06;;;;;;;39.85;20.52;;;7.00;99.90;;;;;;5088108;28;20113;-76
2022/11/15 03:12:51;;;;;;;37.83;19.60;;;7.10;99.90;;;;;;5080807;28;20089;-76
2022/11/15 03:15:35;;;;;;;44.28;20.90;;;7.10;99.90;;;;;;5101507;28;20049;-75
2022/11/15 03:18:07;;;;;;;39.35;19.63;;;7.10;99.90;;;;;;5107436;28;20055;-76
2022/11/15 03:20:36;;;;;;;39.35;19.65;;;7.20;99.90;;;;;;5106761;28;20048;-75
2022/11/15 03:23:06;;;;;;;41.30;19.60;;;7.20;99.90;;;;;;5106232;28;20438;-76
2022/11/15 03:25:34;;;;;;;43.55;19.65;;;7.30;99.90;;;;;;5086947;28;20063;-77
2022/11/15 03:28:05;;;;;;;39.05;19.23;;;7.30;99.90;;;;;;5086633;28;20029;-76
2022/11/15 03:30:34;;;;;;;44.10;20.95;;;7.30;99.90;;;;;;5087043;28;20029;-75
2022/11/15 03:33:02;;;;;;;50.03;20.35;;;7.30;99.90;;;;;;5086630;28;20053;-76
2022/11/15 03:35:33;;;;;;;40.88;18.88;;;7.30;99.90;;;;;;5089702;28;20028;-75
2022/11/15 03:38:24;;;;;;;44.40;20.17;;;7.40;99.90;;;;;;5107229;28;20072;-75
2022/11/15 03:41:04;;;;;;;42.92;20.50;;;7.40;99.90;;;;;;5106917;28;20515;-75
2022/11/15 03:43:32;;;;;;;43.13;19.33;;;7.50;99.90;;;;;;5106617;28;20058;-76
2022/11/15 03:46:17;;;;;;;39.47;19.52;;;7.50;99.90;;;;;;5087528;28;20020;-76
2022/11/15 03:48:54;;;;;;;;;;;7.50;99.90;;;;;;5086478;28;20029;-76
2022/11/15 03:51:20;;;;;;;43.30;20.45;;;7.60;99.90;;;;;;5086327;28;20283;-75
2022/11/15 03:53:46;;;;;;;42.63;19.77;;;7.60;99.90;;;;;;5084978;28;20088;-76
2022/11/15 03:56:12;;;;;;;42.30;20.48;;;7.70;99.90;;;;;;5085920;28;20032;-75
2022/11/15 03:58:37;;;;;;;43.72;21.50;;;7.60;99.90;;;;;;5084665;28;20038;-75
2022/11/15 04:01:03;;;;;;;45.13;21.73;;;7.60;99.90;;;;;;5085857;28;20052;-75
2022/11/15 04:03:28;;;;;;;44.47;21.10;;;7.70;99.90;;;;;;5084439;28;20043;-76
2022/11/15 04:05:54;;;;;;;44.40;20.33;;;7.70;99.90;;;;;;5084899;28;20445;-77
2022/11/15 04:08:19;;;;;;;44.97;21.10;;;7.70;99.90;;;;;;5084479;28;20050;-76
2022/11/15 04:10:48;;;;;;;46.05;21.40;;;7.70;99.90;;;;;;5084527;28;20212;-75
2022/11/15 04:13:13;;;;;;;48.15;21.42;;;7.70;99.90;;;;;;5085952;28;20039;-76
2022/11/15 04:15:39;;;;;;;42.42;21.13;;;7.90;99.90;;;;;;5084584;28;20413;-75
2022/11/15 04:18:05;;;;;;;50.50;23.15;;;7.80;99.90;;;;;;5099706;28;20028;-76
2022/11/15 04:26:20;;;;;;;44.55;20.40;;;7.80;99.90;;;;;;5105692;28;20031;-76
2022/11/15 04:31:30;;;;;;;42.75;20.45;;;7.80;99.90;;;;;;5105787;28;20158;-75
2022/11/15 04:33:56;;;;;;;43.72;21.00;;;7.90;99.90;;;;;;5106074;28;20042;-76
2022/11/15 04:39:07;;;;;;;43.88;20.40;;;7.90;99.90;;;;;;5105927;28;20043;-75
2022/11/15 04:41:33;;;;;;;46.08;21.08;;;7.80;99.90;;;;;;5104322;28;20051;-76
2022/11/15 04:43:58;;;;;;;48.42;21.95;;;7.90;99.90;;;;;;5105358;28;20499;-77
2022/11/15 04:46:24;;;;;;;40.22;20.80;;;7.90;99.90;;;;;;5105860;28;20024;-77
2022/11/15 04:48:50;;;;;;;42.08;19.38;;;7.90;99.90;;;;;;5104339;28;20019;-76
2022/11/15 04:51:16;;;;;;;42.22;20.88;;;8.10;99.90;;;;;;5105010;28;20142;-75
2022/11/15 04:53:42;;;;;;;46.10;19.55;;;8.00;99.90;;;;;;5105274;28;20032;-75
2022/11/15 04:56:07;;;;;;;41.10;19.92;;;8.00;99.90;;;;;;5103982;28;20046;-75
2022/11/15 04:58:33;;;;;;;38.67;20.65;;;8.00;99.90;;;;;;5104870;28;20016;-77
2022/11/15 05:01:07;;;;;;;40.45;20.30;;;8.10;99.90;;;;;;5105323;28;20024;-75
2022/11/15 05:06:17;;;;;;;42.25;20.08;;;8.10;99.90;;;;;;5104900;28;20043;-75
2022/11/15 05:08:42;;;;;;;40.65;19.92;;;8.20;99.90;;;;;;5105208;28;20024;-75
2022/11/15 05:11:08;;;;;;;46.28;21.33;;;8.10;99.90;;;;;;5104744;28;20024;-75
2022/11/15 05:13:33;;;;;;;41.38;18.83;;;8.10;99.90;;;;;;5104744;28;20051;-76
2022/11/15 05:15:59;;;;;;;42.42;20.85;;;8.20;99.90;;;;;;5105253;28;20069;-77
2022/11/15 05:18:25;;;;;;;47.28;20.23;;;8.20;99.90;;;;;;5086408;28;20055;-77
2022/11/15 05:20:50;;;;;;;47.00;19.52;;;8.20;99.90;;;;;;5084518;28;20048;-75
2022/11/15 05:23:16;;;;;;;40.83;19.27;;;8.20;99.90;;;;;;5098964;28;20136;-75
2022/11/15 05:25:41;;;;;;;46.20;20.85;;;8.20;99.90;;;;;;5103066;28;20145;-75
2022/11/15 05:28:07;;;;;;;47.75;20.05;;;8.30;99.90;;;;;;5103273;28;20093;-76
2022/11/15 05:30:33;;;;;;;43.17;19.35;;;8.30;99.90;;;;;;5104123;28;20051;-76
2022/11/15 05:32:59;;;;;;;40.88;19.55;;;8.40;99.90;;;;;;5103197;28;20024;-76
2022/11/15 05:35:34;;;;;;;36.10;18.85;;;8.30;99.90;;;;;;5104832;28;20154;-76
2022/11/15 05:37:59;;;;;;;38.47;18.60;;;8.30;99.90;;;;;;5102457;28;20062;-76
2022/11/15 05:40:26;;;;;;;44.30;19.52;;;8.40;99.90;;;;;;5104710;28;20065;-76
2022/11/15 05:42:52;;;;;;;37.63;19.25;;;8.40;99.90;;;;;;5091735;28;20068;-76
2022/11/15 05:45:17;;;;;;;39.33;18.60;;;8.40;99.90;;;;;;5084057;28;20040;-77
2022/11/15 05:47:44;;;;;;;38.85;18.05;;;8.30;99.90;;;;;;5082818;28;20025;-76
2022/11/15 05:50:14;;;;;;;43.42;19.02;;;8.40;99.90;;;;;;5101125;28;20085;-76
2022/11/15 05:52:40;;;;;;;34.88;17.48;;;8.40;99.90;;;;;;5095782;28;20024;-79
2022/11/15 05:55:08;;;;;;;37.20;18.10;;;8.40;99.90;;;;;;5087613;28;20035;-78
2022/11/15 05:57:34;;;;;;;31.60;17.13;;;8.40;99.90;;;;;;5086423;28;20051;-75
2022/11/15 06:00:00;;;;;;;40.17;19.13;;;8.50;99.90;;;;;;5086733;28;20037;-78
2022/11/15 06:02:26;;;;;;;38.55;18.25;;;8.50;99.90;;;;;;5087557;28;20024;-78
2022/11/15 06:04:51;;;;;;;37.38;18.83;;;8.50;99.90;;;;;;5083996;28;20400;-76
2022/11/15 06:07:17;;;;;;;37.88;17.92;;;8.50;99.90;;;;;;5098047;28;20032;-77
2022/11/15 06:09:42;;;;;;;40.90;18.13;;;8.50;99.90;;;;;;5104141;28;20016;-77
2022/11/15 06:12:08;;;;;;;32.90;16.98;;;8.60;99.90;;;;;;5089921;28;20052;-77
2022/11/15 06:14:34;;;;;;;42.05;18.67;;;8.60;99.90;;;;;;5085869;28;20020;-78
2022/11/15 06:16:59;;;;;;;40.42;18.05;;;8.70;99.90;;;;;;5095917;28;20036;-78
2022/11/15 06:19:25;;;;;;;35.67;17.52;;;8.70;99.90;;;;;;5088444;28;20028;-77
2022/11/15 06:21:50;;;;;;;46.58;18.33;;;8.70;99.90;;;;;;5091468;28;20080;-77
2022/11/15 06:24:16;;;;;;;33.42;17.92;;;8.70;99.90;;;;;;5083972;28;20041;-76
2022/11/15 06:26:41;;;;;;;36.90;17.40;;;8.70;99.90;;;;;;5091826;28;20032;-76
2022/11/15 06:29:07;;;;;;;34.83;18.55;;;8.80;99.90;;;;;;5091906;28;20032;-77
2022/11/15 06:31:34;;;;;;;35.10;17.25;;;8.80;99.90;;;;;;5092387;28;20044;-76
2022/11/15 06:34:00;;;;;;;33.50;16.52;;;8.80;99.90;;;;;;5083275;28;20113;-76
2022/11/15 06:36:26;;;;;;;34.47;16.40;;;8.80;99.90;;;;;;5084286;28;20104;-77
2022/11/15 06:38:52;;;;;;;28.35;15.57;;;8.90;99.90;;;;;;5079519;28;20088;-77
2022/11/15 06:41:18;;;;;;;33.30;16.55;;;8.90;99.90;;;;;;5080965;28;20056;-77
2022/11/15 06:43:43;;;;;;;34.13;16.35;;;9.00;99.90;;;;;;5080977;28;20120;-76
2022/11/15 06:46:09;;;;;;;33.90;15.77;;;8.90;99.90;;;;;;5083407;28;20080;-76
2022/11/15 06:48:38;;;;;;;35.83;16.67;;;9.00;99.90;;;;;;5083905;28;20025;-74
2022/11/15 06:51:04;;;;;;;31.65;16.25;;;9.00;99.90;;;;;;5087334;28;20059;-76
2022/11/15 06:53:31;;;;;;;35.05;16.52;;;9.00;99.90;;;;;;5097946;28;20024;-77
2022/11/15 06:56:01;;;;;;;31.15;15.85;;;9.10;99.90;;;;;;5086042;28;20036;-76
2022/11/15 06:58:27;;;;;;;42.70;16.30;;;9.10;99.90;;;;;;5085853;28;20056;-78
2022/11/15 07:00:53;;;;;;;33.95;16.05;;;9.10;99.90;;;;;;5086194;28;20033;-75
2022/11/15 07:03:19;;;;;;;32.58;15.98;;;9.10;99.90;;;;;;5087013;28;20144;-76
2022/11/15 07:05:55;;;;;;;28.45;15.60;;;9.20;99.90;;;;;;5089727;28;20028;-77
2022/11/15 07:08:22;;;;;;;31.92;16.98;;;9.20;99.90;;;;;;5100427;28;20479;-74
2022/11/15 07:10:48;;;;;;;33.90;16.80;;;9.20;99.90;;;;;;5107207;28;20024;-75
2022/11/15 07:13:13;;;;;;;33.35;16.67;;;9.20;99.90;;;;;;5107426;28;20027;-74
2022/11/15 07:15:39;;;;;;;35.35;16.42;;;9.20;99.90;;;;;;5107397;28;20028;-74
2022/11/15 07:18:05;;;;;;;33.78;16.75;;;9.20;99.90;;;;;;5105782;28;20035;-74
2022/11/15 07:20:30;;;;;;;33.50;17.08;;;9.30;99.90;;;;;;5107088;28;20155;-75
2022/11/15 07:23:01;;;;;;;30.33;16.02;;;9.30;99.90;;;;;;5107038;28;20036;-78
2022/11/15 07:25:27;;;;;;;35.28;17.10;;;9.30;99.90;;;;;;5098571;28;20031;-76
2022/11/15 07:27:57;;;;;;;31.83;15.68;;;9.30;99.90;;;;;;5090444;28;20416;-76
2022/11/15 07:30:23;;;;;;;33.90;16.60;;;9.40;99.90;;;;;;5102586;28;20067;-77
2022/11/15 07:32:53;;;;;;;33.88;16.60;;;9.50;99.90;;;;;;5107091;28;20031;-78
2022/11/15 07:35:19;;;;;;;34.05;16.02;;;9.40;99.90;;;;;;5105707;28;20028;-77
2022/11/15 07:38:02;;;;;;;29.63;16.08;;;9.40;99.90;;;;;;5107587;28;20026;-76
2022/11/15 07:40:30;;;;;;;32.70;16.75;;;9.40;99.90;;;;;;5107087;28;20040;-79
2022/11/15 07:43:05;;;;;;;33.17;17.02;;;9.50;99.90;;;;;;5099045;28;20041;-76
2022/11/15 07:45:33;;;;;;;30.55;15.88;;;9.70;99.90;;;;;;5089372;28;20024;-77
2022/11/15 07:48:04;;;;;;;30.80;15.75;;;9.80;99.90;;;;;;5091930;28;20024;-76
2022/11/15 07:50:30;;;;;;;27.80;15.77;;;9.80;99.90;;;;;;5105607;28;20024;-77
2022/11/15 07:52:58;;;;;;;28.58;15.93;;;10.00;99.90;;;;;;5101758;28;20411;-77
2022/11/15 07:55:27;;;;;;;30.40;15.65;;;10.10;99.90;;;;;;5087025;28;20024;-77
2022/11/15 07:57:52;;;;;;;27.15;14.68;;;10.30;99.90;;;;;;5095468;28;20024;-76
2022/11/15 08:00:19;;;;;;;29.70;15.23;;;10.60;99.90;;;;;;5089031;28;20039;-75
2022/11/15 08:02:45;;;;;;;28.70;14.43;;;10.80;99.90;;;;;;5089262;28;20739;-75
2022/11/15 08:05:11;;;;;;;26.83;14.45;;;10.80;99.90;;;;;;5086219;28;20028;-77
2022/11/15 08:07:37;;;;;;;29.55;14.75;;;10.80;99.90;;;;;;5098139;28;20088;-75
2022/11/15 08:10:05;;;;;;;27.45;14.82;;;10.80;99.90;;;;;;5104037;28;20039;-75
2022/11/15 08:12:31;;;;;;;24.33;14.48;;;10.80;99.90;;;;;;5102312;28;20028;-73
2022/11/15 08:14:57;;;;;;;28.35;15.45;;;10.70;99.90;;;;;;5092080;28;20024;-75
2022/11/15 08:17:24;;;;;;;31.42;16.48;;;10.70;99.90;;;;;;5092076;28;20062;-75
2022/11/15 08:19:50;;;;;;;33.08;15.27;;;10.70;99.90;;;;;;5090105;28;20026;-77
2022/11/15 08:22:15;;;;;;;32.33;15.55;;;10.60;99.90;;;;;;5094265;28;20052;-75
2022/11/15 08:24:41;;;;;;;30.90;15.60;;;10.60;99.90;;;;;;5090155;28;20085;-78
2022/11/15 08:27:17;;;;;;;32.92;15.43;;;10.60;99.90;;;;;;5085357;28;20177;-77
2022/11/15 08:29:44;;;;;;;30.38;15.73;;;10.60;99.90;;;;;;5085687;28;20025;-76
2022/11/15 08:32:10;;;;;;;30.05;15.57;;;10.60;99.90;;;;;;5087652;28;20027;-75
2022/11/15 08:34:37;;;;;;;29.02;15.95;;;10.60;99.90;;;;;;5105578;28;20035;-77
2022/11/15 08:37:03;;;;;;;33.20;16.40;;;10.60;99.90;;;;;;5086746;28;20103;-78
2022/11/15 08:39:29;;;;;;;30.55;16.15;;;10.60;99.90;;;;;;5085394;28;20025;-78
2022/11/15 08:41:54;;;;;;;27.27;15.13;;;10.70;99.90;;;;;;5088045;28;20016;-77
2022/11/15 08:44:20;;;;;;;28.77;15.50;;;10.50;99.90;;;;;;5096185;28;20069;-75
2022/11/15 08:46:46;;;;;;;28.80;15.70;;;10.70;99.90;;;;;;5084688;28;20032;-77
2022/11/15 08:49:12;;;;;;;34.83;16.40;;;10.70;99.90;;;;;;5094730;28;20050;-77
2022/11/15 08:51:37;;;;;;;31.80;15.52;;;10.70;99.90;;;;;;5103617;28;20028;-77
2022/11/15 08:54:03;;;;;;;30.08;14.82;;;10.70;99.90;;;;;;5105305;28;20036;-78
2022/11/15 08:56:29;;;;;;;37.35;15.52;;;10.70;99.90;;;;;;5103520;28;20487;-77
2022/11/15 08:58:54;;;;;;;28.95;14.90;;;10.70;99.90;;;;;;5104063;28;20024;-78
2022/11/15 09:01:21;;;;;;;31.80;16.75;;;10.60;99.90;;;;;;5103612;28;20110;-77
2022/11/15 09:03:46;;;;;;;28.98;15.52;;;10.70;99.90;;;;;;5102990;28;20115;-78
2022/11/15 09:06:12;;;;;;;28.98;14.88;;;10.70;99.90;;;;;;5102802;28;20028;-75
2022/11/15 09:08:39;;;;;;;30.25;15.52;;;10.70;99.90;;;;;;5093292;28;20100;-76
2022/11/15 09:11:09;;;;;;;30.92;15.68;;;10.80;99.90;;;;;;5089918;28;20024;-75
2022/11/15 09:13:36;;;;;;;31.23;15.75;;;10.80;99.90;;;;;;5089132;28;20031;-78
2022/11/15 09:16:04;;;;;;;31.98;15.63;;;10.80;99.90;;;;;;5092096;28;20029;-77
2022/11/15 09:18:30;;;;;;;32.47;15.75;;;10.80;99.90;;;;;;5094624;28;20054;-75
2022/11/15 09:20:59;;;;;;;28.95;15.07;;;10.80;99.90;;;;;;5095286;28;20051;-75
2022/11/15 09:23:26;;;;;;;30.33;15.50;;;10.90;99.90;;;;;;5093436;28;20044;-76
2022/11/15 09:25:52;;;;;;;30.63;16.45;;;10.90;99.90;;;;;;5093388;28;20032;-76
2022/11/15 09:28:18;;;;;;;32.47;15.00;;;11.00;99.90;;;;;;5086153;28;20463;-76
2022/11/15 09:30:43;;;;;;;35.47;15.05;;;11.00;99.90;;;;;;5096597;28;20028;-79
2022/11/15 09:33:12;;;;;;;30.60;15.00;;;11.10;99.90;;;;;;5093939;28;20060;-75
2022/11/15 09:35:38;;;;;;;26.42;13.98;;;11.20;99.90;;;;;;5094888;28;20021;-78
2022/11/15 09:38:04;;;;;;;37.17;14.57;;;11.20;99.90;;;;;;5083775;28;20050;-78
2022/11/15 09:40:32;;;;;;;26.75;13.57;;;11.30;99.90;;;;;;5088582;28;20035;-72
2022/11/15 09:43:09;;;;;;;24.05;12.20;;;11.30;99.90;;;;;;5094739;28;20070;-76
2022/11/15 09:46:00;;;;;;;33.78;14.32;;;11.30;99.90;;;;;;5100210;28;20029;-75
2022/11/15 09:48:35;;;;;;;25.00;13.18;;;11.40;99.90;;;;;;5095411;28;20024;-75
2022/11/15 09:51:04;;;;;;;23.50;13.20;;;11.50;99.90;;;;;;5084339;28;20025;-76
2022/11/15 09:53:46;;;;;;;28.45;13.95;;;11.50;99.90;;;;;;5084668;28;20032;-76
2022/11/15 09:56:23;;;;;;;24.63;13.00;;;11.50;99.90;;;;;;5084475;28;20021;-76
2022/11/15 09:58:58;;;;;;;23.55;12.88;;;11.60;99.90;;;;;;5102001;28;20050;-77
2022/11/15 10:01:40;;;;;;;26.67;13.13;;;11.60;99.90;;;;;;5089586;28;20048;-77
2022/11/15 10:04:06;;;;;;;24.63;12.35;;;11.70;99.90;;;;;;5099295;28;20036;-77
2022/11/15 10:06:34;;;;;;;24.35;13.20;;;11.70;99.90;;;;;;5093104;28;20078;-77
2022/11/15 10:09:24;;;;;;;23.38;12.07;;;11.70;99.90;;;;;;5099807;28;20032;-76
2022/11/15 10:11:50;;;;;;;20.40;11.43;;;11.90;99.90;;;;;;5088779;28;20036;-76
2022/11/15 10:14:25;;;;;;;23.85;12.90;;;12.00;99.90;;;;;;5083549;28;20096;-79
2022/11/15 10:17:11;;;;;;;23.95;12.05;;;12.20;99.90;;;;;;5088411;28;20098;-75
2022/11/15 10:19:52;;;;;;;21.38;11.20;;;12.50;99.90;;;;;;5088301;28;20051;-76
2022/11/15 10:22:27;;;;;;;24.73;11.63;;;12.60;99.90;;;;;;5089067;28;20041;-73
2022/11/15 10:25:12;;;;;;;21.65;11.43;;;12.90;99.90;;;;;;5087169;28;20098;-75
2022/11/15 10:27:38;;;;;;;;;;;13.00;99.90;;;;;;5094084;28;20144;-73
2022/11/15 10:30:11;;;;;;;23.08;10.02;;;13.10;99.90;;;;;;5087460;28;19909;-75
2022/11/15 10:32:36;;;;;;;18.25;10.18;;;13.10;99.90;;;;;;5099286;28;20041;-75
2022/11/15 10:35:26;;;;;;;16.75;9.90;;;13.00;99.90;;;;;;5086821;28;20028;-75
2022/11/15 10:38:08;;;;;;;21.88;11.48;;;13.00;99.90;;;;;;5100124;28;20031;-75
2022/11/15 10:40:34;;;;;;;19.15;10.57;;;12.90;99.90;;;;;;5095035;28;20028;-75
2022/11/15 10:43:09;;;;;;;20.63;10.27;;;12.90;99.90;;;;;;5097717;28;20040;-75
2022/11/15 10:45:35;;;;;;;20.42;10.20;;;12.80;99.90;;;;;;5092667;28;20032;-73
2022/11/15 10:48:13;;;;;;;21.13;11.02;;;12.70;99.90;;;;;;5095582;28;20032;-74
2022/11/15 10:50:46;;;;;;;19.17;9.95;;;12.70;99.90;;;;;;5086610;28;20033;-75
2022/11/15 10:53:25;;;;;;;23.42;11.15;;;12.70;99.90;;;;;;5095222;28;20157;-76
2022/11/15 10:55:54;;;;;;;19.17;10.10;;;12.80;99.90;;;;;;5101358;28;20032;-74
2022/11/15 10:58:41;;;;;;;21.05;10.23;;;12.80;99.90;;;;;;5086552;28;20054;-77
2022/11/15 11:01:11;;;;;;;20.98;10.40;;;12.90;99.90;;;;;;5089247;28;20032;-76
2022/11/15 11:03:39;;;;;;;22.98;10.52;;;13.00;99.90;;;;;;5086896;28;20041;-75
2022/11/15 11:06:13;;;;;;;17.95;9.90;;;13.10;99.90;;;;;;5087206;28;20051;-77
2022/11/15 11:08:39;;;;;;;;;;;13.20;99.90;;;;;;5086099;28;20024;-73
2022/11/15 11:11:06;;;;;;;14.70;8.48;;;13.20;99.90;;;;;;5088381;28;20042;-75
2022/11/15 11:13:38;;;;;;;15.73;9.20;;;13.30;99.90;;;;;;5089787;28;20468;-74
2022/11/15 11:16:19;;;;;;;17.15;8.63;;;13.30;99.90;;;;;;5090530;28;20032;-78
2022/11/15 11:19:09;;;;;;;22.58;9.35;;;13.40;99.90;;;;;;5107368;28;20020;-75
2022/11/15 11:21:50;;;;;;;19.92;9.55;;;13.50;99.90;;;;;;5106322;28;20032;-73
2022/11/15 11:24:25;;;;;;;20.83;9.02;;;13.60;99.90;;;;;;5105806;28;20047;-75
2022/11/15 11:27:09;;;;;;;16.02;8.50;;;13.70;99.90;;;;;;5107479;28;20502;-73
2022/11/15 11:29:52;;;;;;;14.87;8.17;;;13.90;99.90;;;;;;5107126;28;20091;-73
2022/11/15 11:32:27;;;;;;;16.27;7.05;;;13.90;99.90;;;;;;5104762;28;20254;-74
2022/11/15 11:35:11;;;;;;;17.85;8.05;;;13.90;99.90;;;;;;5085656;28;20079;-73
2022/11/15 11:37:44;;;;;;;13.13;7.38;;;13.90;99.90;;;;;;5086693;28;20041;-74
2022/11/15 11:40:13;;;;;;;13.13;7.70;;;14.00;99.90;;;;;;5086641;28;20111;-73
2022/11/15 11:42:58;;;;;;;12.93;6.57;;;14.20;99.90;;;;;;5084559;28;20027;-74
2022/11/15 11:45:43;;;;;;;15.25;7.05;;;14.20;99.90;;;;;;5086600;28;20025;-71
2022/11/15 11:48:21;;;;;;;13.95;7.13;;;14.30;99.90;;;;;;5101538;28;20032;-71
2022/11/15 11:50:47;;;;;;;16.23;7.53;;;14.30;99.90;;;;;;5097256;28;20021;-73
2022/11/15 11:53:34;;;;;;;14.93;6.95;;;14.40;99.90;;;;;;5102800;28;20043;-72
2022/11/15 11:56:07;;;;;;;11.32;6.53;;;14.70;99.90;;;;;;5106947;28;20095;-75
2022/11/15 11:58:45;;;;;;;12.38;6.57;;;14.90;99.90;;;;;;5096587;28;20017;-75
2022/11/15 12:01:25;;;;;;;13.63;6.75;;;15.00;99.90;;;;;;5102107;28;20040;-73
2022/11/15 12:04:03;;;;;;;15.70;7.18;;;15.10;99.90;;;;;;5104953;28;20036;-72
2022/11/15 12:06:49;;;;;;;13.18;6.25;;;15.20;99.90;;;;;;5099615;28;20032;-73
2022/11/15 12:09:17;;;;;;;10.02;5.80;;;15.20;99.90;;;;;;5091275;28;20021;-71
2022/11/15 12:11:57;;;;;;;11.68;6.07;;;15.10;99.90;;;;;;5090098;28;20036;-72
2022/11/15 12:14:57;;;;;;;10.45;6.75;;;15.10;99.90;;;;;;5091360;28;20028;-72
2022/11/15 12:17:32;;;;;;;12.82;6.70;;;15.20;99.90;;;;;;5087800;28;20032;-73
2022/11/15 12:20:06;;;;;;;12.55;6.60;;;15.30;99.90;;;;;;5090822;28;20040;-74
2022/11/15 12:22:54;;;;;;;11.82;6.45;;;15.30;99.90;;;;;;5089228;28;20088;-75
2022/11/15 12:25:44;;;;;;;10.65;5.75;;;15.10;99.90;;;;;;5085436;28;20043;-72
2022/11/15 12:28:42;;;;;;;12.18;6.70;;;15.00;99.90;;;;;;5085733;28;20086;-76
2022/11/15 12:31:29;;;;;;;13.20;6.60;;;14.80;99.90;;;;;;5047713;28;20037;-74
2022/11/15 12:33:57;;;;;;;12.65;6.05;;;14.90;99.90;;;;;;5085668;28;20033;-76
2022/11/15 12:36:22;;;;;;;8.85;5.72;;;15.00;99.90;;;;;;5085671;28;20020;-74
2022/11/15 12:38:57;;;;;;;14.85;5.95;;;15.00;99.90;;;;;;5084607;28;20034;-79
2022/11/15 12:41:31;;;;;;;12.88;6.13;;;15.00;99.90;;;;;;5084178;28;20029;-72
2022/11/15 12:43:58;;;;;;;8.60;5.63;;;15.10;99.90;;;;;;5085084;28;20044;-73
2022/11/15 12:46:30;;;;;;;11.35;5.72;;;15.30;99.90;;;;;;5084101;28;20050;-71
2022/11/15 12:49:27;;;;;;;9.65;5.15;;;15.40;99.90;;;;;;5084720;28;20020;-76
2022/11/15 12:52:00;;;;;;;9.57;5.65;;;15.50;99.90;;;;;;5084211;28;20042;-76
2022/11/15 12:54:28;;;;;;;9.38;5.28;;;15.50;99.90;;;;;;5084880;28;20032;-75
2022/11/15 12:57:03;;;;;;;10.65;5.47;;;15.50;99.90;;;;;;5084070;28;20098;-74
2022/11/15 13:00:06;;;;;;;8.48;5.15;;;15.30;99.90;;;;;;5084820;28;20021;-75
2022/11/15 13:02:45;;;;;;;10.63;5.72;;;15.20;99.90;;;;;;5087333;28;20032;-75
2022/11/15 13:05:20;;;;;;;12.27;5.97;;;15.00;99.90;;;;;;5084377;28;20029;-74
2022/11/15 13:07:45;;;;;;;8.95;4.70;;;14.80;99.90;;;;;;5084781;28;20410;-75
2022/11/15 13:10:26;;;;;;;9.30;5.70;;;14.60;99.90;;;;;;5090524;28;20020;-75